Terminal Aerodrome Forecast
Issued by NWS

Current Version | Previous Version | Graphics & Text | Print | Product List | Glossary On
Versions: 1 2 3 4 5 6 7 8 9 10 11 12 13 14 15 16 17 18 19 20 21 22 23 24 25 26
000
FTUS41 KILN 241300 AAA
TAFLCK
TAF AMD
KLCK 241324Z 2413/2512 19018G28KT P6SM SCT025 OVC060
     FM241500 22020G30KT P6SM VCSH SCT015 OVC028
      TEMPO 2417/2418 24026G36KT 5SM -SHRA BR OVC015
     FM241900 24024G36KT P6SM OVC025
     FM250600 24014G26KT P6SM SCT025
      TEMPO 2506/2509 BKN025=

USA.gov is the U.S. government's official web portal to all federal, state and local government web resources and services.